Flight Track Log - Related Links

Times and Time Zones

All times are in EDT time to prevent confusion due to time zone crossing. See the SWA2857 flight status page for this flight to view local times or setup timezone preferences in your user account.

Time Position Orientation Groundspeed Altitude Reporting Facility
EDT Latitude Longitude Course Direction KTS MPH feet Rate Location/Type
Thu 10:06:44 PM 42.3667 -70.9667 90° East 138 159 1,100  Level KA90
Thu 10:07:08 PM 42.3667 -70.9500 90° East 147 169 1,800 2,633 Climbing KA90
Thu 10:09:03 PM 42.4011 -70.8067 72° East 227 261 7,200 3,086 Climbing Boston Center
Thu 10:10:03 PM 42.4736 -70.7736 19° North 237 273 10,800 3,600 Climbing Boston Center
Thu 10:11:03 PM 42.5436 -70.8508 321° Northwest 218 251 14,400 3,200 Climbing Boston Center
Thu 10:12:03 PM 42.6097 -70.9675 308° West 318 366 17,200 2,650 Climbing Boston Center
Thu 10:13:03 PM 42.6586 -71.0511 309° West 360 414 19,700 3,500 Climbing Boston Center
Thu 10:14:03 PM 42.7417 -71.1992 307° West 402 463 24,200 3,800 Climbing Boston Center
Thu 10:15:03 PM 42.7911 -71.3367 296° West 408 470 27,300 2,750 Climbing Boston Center
Thu 10:16:03 PM 42.8069 -71.4950 278° West 408 470 29,700 1,550 Climbing Boston Center
Thu 10:17:03 PM 42.8208 -71.6617 277° West 426 490 30,400 850 Climbing Boston Center
Thu 10:18:03 PM 42.8344 -71.8286 276° West 438 504 31,400 1,400 Climbing Boston Center
Thu 10:19:03 PM 42.8517 -71.9928 278° West 449 517 33,200 1,850 Climbing Boston Center
Thu 10:20:03 PM 42.8669 -72.1597 277° West 449 517 35,100 1,700 Climbing Boston Center
Thu 10:21:03 PM 42.8881 -72.3239 280° West 442 509 36,600 1,500 Climbing Boston Center
Thu 10:22:03 PM 42.9006 -72.4911 276° West 442 509 38,100 1,400 Climbing Boston Center
Thu 10:23:03 PM 42.9086 -72.6669 274° West 442 509 39,400 950 Climbing Boston Center
Thu 10:24:03 PM 42.9228 -72.8256 277° West 436 502 40,000 273 Climbing Boston Center
Thu 10:25:15 PM 42.9347 -72.9844 276° West 436 502 40,000  Level Boston Center
Thu 10:26:15 PM 42.9544 -73.1664 278° West 436 502 40,000  Level Boston Center
Thu 10:27:15 PM 42.9681 -73.3283 277° West 436 502 40,000  Level Boston Center
Thu 10:28:15 PM 42.9750 -73.4872 273° West 431 496 40,000  Level Boston Center
Thu 10:29:27 PM 42.9881 -73.6464 276° West 431 496 40,000  Level Boston Center
Thu 10:30:27 PM 43.0025 -73.8397 276° West 425 489 40,000  Level Boston Center
Thu 10:31:27 PM 43.0150 -73.9992 276° West 425 489 40,000  Level Boston Center
Thu 10:32:27 PM 43.0272 -74.1583 276° West 425 489 40,000  Level Boston Center
Thu 10:33:27 PM 43.0392 -74.3206 276° West 425 489 40,000  Level Boston Center
Thu 10:34:27 PM 43.0511 -74.4772 276° West 425 489 40,000  Level Boston Center
Thu 10:35:27 PM 43.0608 -74.6369 275° West 425 489 40,000  Level Boston Center
Thu 10:36:27 PM 43.0739 -74.8106 276° West 425 489 40,000  Level Boston Center
Thu 10:37:27 PM 43.0850 -74.9703 275° West 425 489 40,000  Level Boston Center
Thu 10:38:27 PM 43.0961 -75.1300 275° West 425 489 40,000  Level Boston Center
Thu 10:39:27 PM 43.1044 -75.2925 274° West 425 489 40,000  Level Boston Center
Thu 10:40:27 PM 43.0903 -75.4483 263° West 425 489 40,000  Level Boston Center
Thu 10:41:27 PM 43.0672 -75.6036 259° West 419 482 40,000  Level Boston Center
Thu 10:42:27 PM 43.0461 -75.7586 259° West 425 489 40,000  Level Boston Center
Thu 10:43:27 PM 43.0225 -75.9167 259° West 425 489 40,000  Level Boston Center
Thu 10:44:58 PM 42.9914 -76.1319 259° West 413 475 40,000  Level Cleveland Center
Thu 10:45:58 PM 42.9683 -76.2897 259° West 413 475 40,000  Level Cleveland Center
Thu 10:46:58 PM 42.9467 -76.4389 259° West 413 475 40,000  Level Cleveland Center
Thu 10:47:58 PM 42.9247 -76.5906 259° West 413 475 40,000  Level Cleveland Center
Thu 10:48:57 PM 42.8992 -76.7567 258° West 413 475 40,000  Level Cleveland Center
Thu 10:49:58 PM 42.8769 -76.9025 258° West 408 470 40,000  Level Cleveland Center
Thu 10:50:58 PM 42.8544 -77.0514 258° West 408 470 40,000  Level Cleveland Center
Thu 10:51:58 PM 42.8317 -77.2025 258° West 408 470 40,000  Level Cleveland Center
Thu 10:52:58 PM 42.8089 -77.3511 258° West 408 470 40,000  Level Cleveland Center
Thu 10:53:58 PM 42.7858 -77.4994 258° West 408 470 40,000  Level Cleveland Center
Thu 10:54:58 PM 42.7606 -77.6478 257° West 408 470 40,000  Level Cleveland Center
Thu 10:55:58 PM 42.7411 -77.7844 259° West 408 470 40,000  Level Cleveland Center
Thu 10:56:58 PM 42.7175 -77.9353 258° West 416 479 40,000  Level Cleveland Center
Thu 10:57:58 PM 42.6939 -78.0858 258° West 411 473 40,000  Level Cleveland Center
Thu 10:58:58 PM 42.6678 -78.2339 257° West 411 473 40,000  Level Cleveland Center
Thu 10:59:58 PM 42.6436 -78.3817 258° West 411 473 40,000  Level Cleveland Center
Thu 11:00:58 PM 42.6192 -78.5292 257° West 411 473 40,000  Level Cleveland Center
Thu 11:01:58 PM 42.5944 -78.6767 257° West 411 473 40,000  Level Cleveland Center
Thu 11:02:58 PM 42.5697 -78.8239 257° West 411 473 40,000  Level Cleveland Center
Thu 11:03:58 PM 42.5450 -78.9797 258° West 416 479 40,000  Level Cleveland Center
Thu 11:04:58 PM 42.5197 -79.1239 257° West 416 479 40,000  Level Cleveland Center
Thu 11:05:58 PM 42.4925 -79.2767 256° West 411 473 40,000  Level Cleveland Center
Thu 11:06:58 PM 42.4981 -79.4231 273° West 411 473 40,000  Level Cleveland Center
Thu 11:07:58 PM 42.5078 -79.5722 275° West 400 460 40,000  Level Cleveland Center
Thu 11:08:58 PM 42.5153 -79.7242 274° West 400 460 40,000  Level Cleveland Center
Thu 11:09:58 PM 42.5206 -79.8733 273° West 405 466 40,000  Level Cleveland Center
Thu 11:10:58 PM 42.5278 -80.0450 273° West 405 466 40,000  Level Cleveland Center
Thu 11:11:58 PM 42.5325 -80.1917 273° West 405 466 40,000  Level Cleveland Center
Thu 11:12:58 PM 42.5392 -80.3464 273° West 405 466 40,000  Level Cleveland Center
Thu 11:13:57 PM 42.5456 -80.4789 274° West 400 460 40,000  Level Cleveland Center
Thu 11:14:58 PM 42.5519 -80.6311 273° West 405 466 40,000  Level Cleveland Center
Thu 11:15:58 PM 42.5558 -80.7747 272° West 405 466 40,000  Level Cleveland Center
Thu 11:16:58 PM 42.5619 -80.9214 273° West 400 460 40,000  Level Cleveland Center
Thu 11:17:58 PM 42.5675 -81.0708 273° West 400 460 40,000  Level Cleveland Center
Thu 11:18:58 PM 42.5731 -81.2203 273° West 400 460 40,000  Level Cleveland Center
Thu 11:19:58 PM 42.5764 -81.3697 272° West 400 460 40,000  Level Cleveland Center
Thu 11:20:58 PM 42.5939 -81.5139 279° West 405 466 40,000  Level Cleveland Center
Thu 11:21:58 PM 42.6197 -81.6667 283° West 396 456 40,000  Level Cleveland Center
Thu 11:22:58 PM 42.6453 -81.8111 284° West 386 444 40,000  Level Cleveland Center
Thu 11:23:57 PM 42.6689 -81.9500 283° West 386 444 40,000  Level Cleveland Center
Thu 11:24:57 PM 42.6942 -82.0917 284° West 386 444 40,000  Level Cleveland Center
Thu 11:25:57 PM 42.7192 -82.2364 283° West 386 444 40,000  Level Cleveland Center
Thu 11:26:58 PM 42.7442 -82.3783 284° West 392 451 40,000  Level Cleveland Center
Thu 11:27:57 PM 42.7669 -82.5233 282° West 392 451 40,000  Level Cleveland Center
Thu 11:28:58 PM 42.7914 -82.6683 283° West 392 451 40,000  Level Cleveland Center
Thu 11:29:58 PM 42.8139 -82.8106 282° West 392 451 40,000  Level Cleveland Center
Thu 11:30:58 PM 42.8381 -82.9503 283° West 392 451 40,000  Level Cleveland Center
Thu 11:31:57 PM 42.8603 -83.0900 282° West 392 451 40,000  Level Cleveland Center
Thu 11:32:57 PM 42.8839 -83.2353 283° West 392 451 40,000  Level Cleveland Center
Thu 11:33:58 PM 42.9056 -83.3781 282° West 392 451 40,000  Level Cleveland Center
Thu 11:34:58 PM 42.9292 -83.5208 283° West 392 451 40,000  Level Cleveland Center
Thu 11:35:58 PM 42.9506 -83.6639 282° West 392 451 40,000  Level Cleveland Center
Thu 11:36:58 PM 42.9717 -83.8039 282° West 392 451 40,000  Level Cleveland Center
Thu 11:37:57 PM 42.9844 -83.9408 277° West 387 445 40,000  Level Cleveland Center
Thu 11:38:58 PM 42.9969 -84.0806 277° West 382 440 40,000  Level Cleveland Center
Thu 11:39:58 PM 43.0097 -84.2092 278° West 382 440 40,000  Level Cleveland Center
Thu 11:40:57 PM 43.0236 -84.3606 277° West 382 440 40,000  Level Cleveland Center
Thu 11:42:01 PM 43.0378 -84.4989 278° West 372 428 40,000  Level Chicago Center
Thu 11:43:02 PM 43.0514 -84.6419 277° West 379 436 40,000  Level Chicago Center
Thu 11:44:03 PM 43.0639 -84.7850 277° West 380 437 40,000  Level Chicago Center
Thu 11:45:04 PM 43.0769 -84.9283 277° West 381 438 40,000  Level Chicago Center
Thu 11:46:05 PM 43.0889 -85.0728 277° West 383 441 40,000  Level Chicago Center
Thu 11:47:06 PM 43.1019 -85.2161 277° West 381 438 40,000  Level Chicago Center
Thu 11:48:07 PM 43.1144 -85.3606 277° West 382 440 40,000  Level Chicago Center
Thu 11:49:08 PM 43.1267 -85.5056 277° West 387 445 40,000  Level Chicago Center
Thu 11:50:09 PM 43.1408 -85.6783 276° West 384 442 40,000 -393 Level Chicago Center
Thu 11:51:10 PM 43.1525 -85.8217 276° West 385 443 39,200 -885 Descending Chicago Center
Thu 11:52:11 PM 43.1644 -85.9711 276° West 402 463 38,200 -1,279 Descending Chicago Center
Thu 11:53:12 PM 43.1586 -86.1200 267° West 404 465 36,600 -2,033 Descending Chicago Center
Thu 11:54:12 PM 43.1414 -86.2642 261° West 395 455 34,100 -2,777 Descending Chicago Center
Thu 11:55:13 PM 43.1253 -86.4067 261° West 386 444 31,000 -3,148 Descending Chicago Center
Thu 11:56:14 PM 43.1086 -86.5519 261° West 390 449 27,700 -3,443 Descending Chicago Center
Thu 11:57:15 PM 43.0881 -86.7292 261° West 396 456 24,000 -3,197 Descending Chicago Center
Thu 11:58:16 PM 43.0711 -86.8747 261° West 390 449 21,200 -2,607 Descending Chicago Center
Thu 11:59:17 PM 43.0478 -87.0131 257° West 378 435 18,700 -2,380 Descending Chicago Center
Fri 12:00:17 AM 43.0106 -87.1400 248° West 366 421 16,400 -2,132 Descending Chicago Center
Fri 12:01:18 AM 42.9753 -87.2628 249° West 353 406 14,400 -2,016 Descending Chicago Center
Fri 12:02:19 AM 42.9411 -87.3806 248° West 337 388 12,300 -1,770 Descending Chicago Center
Fri 12:03:20 AM 42.9100 -87.4894 249° West 321 369 10,800 -1,636 Descending Chicago Center
Fri 12:04:20 AM 42.8819 -87.5869 249° West 281 323 9,000 -1,934 Descending Chicago Center
Fri 12:05:21 AM 42.8342 -87.6669 231° Southwest 269 310 6,900 -2,066 Descending Chicago Center
Fri 12:06:22 AM 42.7856 -87.7442 229° Southwest 267 307 4,800 -1,918 Descending Chicago Center
Fri 12:07:23 AM 42.7553 -87.8261 243° Southwest 258 297 3,000 -893 Descending Chicago Center
Fri 12:08:23 AM 42.7833 -87.8967 298° West 227 261 3,000 -198 Level Chicago Center
Fri 12:09:24 AM 42.8342 -87.9142 346° North 175 201 2,600 -541 Descending Chicago Center
Fri 12:10:25 AM 42.8717 -87.9069 North 148 170 1,900 -635 Descending Chicago Center
Fri 12:11:08 AM 42.9000 -87.9000 10° North 106 122 1,500 -583 Descending KMKE
Fri 12:12:08 AM 42.9333 -87.9000 360° North 106 122 900 -600 Descending KMKE
Fri 12:14:00 AM 42.9469 -87.8971 North  Level Estimated

Login

Don't have an account? Register now (free) for customized features, flight alerts, and more!